M. Luther — WDC7372 — position and weather

sailwx.info

Track history (hours):
 
Tides and Currents Weather Stations Pressure Air Temp Water Temp Dewpoint Dewpoint Depression Visibility Wind Speed Wind Dir Waves Ship Positions

M. Luther

Owner: Salmon Bay Barge Line, Inc., Seattle, WA. More information available from US FCC via Universal Licensing System and Coast Guard Vessel Documentation Center.

Last reported at 2017-Sep-26 16:00 UTC. Time now 2017-Nov-21 13:55 UTC.
Position N 47°34' W 122°22'.
Warning: this ship's position is 55 days out of date.

Length 28 m; draft 4.1 m.

Type: Tug. MMSI: 367070410.

Date/timePositionNaut miles runAvg speedWind from/ knotsBaromVisibWave heightAir tempDewpointWater temp
2017-Sep-26 16:00N 47°34' W 122°22'0 0.0
2017-Sep-26 15:31N 47°34' W 122°22'0 0.0
2017-Sep-26 15:00N 47°34' W 122°22'  
2017-Sep-22 02:00N 49°09' W 123°00'0 0.0
2017-Sep-22 01:30N 49°09' W 123°00'0 0.0
2017-Sep-22 01:00N 49°09' W 123°00'0 0.0
2017-Sep-22 00:30N 49°09' W 123°00'0 0.0
2017-Sep-22 00:00N 49°09' W 123°00'0 0.0
2017-Sep-21 23:30N 49°09' W 123°00'0 0.0
2017-Sep-21 23:00N 49°09' W 123°00'0 0.2
2017-Sep-21 22:30N 49°09' W 123°00'1 3.0
2017-Sep-21 22:00N 49°09' W 123°02'3 6.8
2017-Sep-21 21:30N 49°07' W 123°07'3 6.1
2017-Sep-21 21:00N 49°07' W 123°11'3 5.4
2017-Sep-21 20:30N 49°07' W 123°15'3 5.7
2017-Sep-21 20:00N 49°06' W 123°19'3 5.2
2017-Sep-21 19:30N 49°03' W 123°18'3 5.7
2017-Sep-21 19:00N 49°01' W 123°15'4 7.8
2017-Sep-21 18:30N 48°59' W 123°10'4 7.4
2017-Sep-21 18:00N 48°57' W 123°07'4 7.2
2017-Sep-21 17:30N 48°54' W 123°03'4 7.1
2017-Sep-21 17:00N 48°51' W 123°00'3 5.7
2017-Sep-21 16:30N 48°48' W 123°01'3 5.7
2017-Sep-21 16:00N 48°45' W 123°03'3 6.7
2017-Sep-21 15:29N 48°44' W 123°08'4 7.8
2017-Sep-21 14:59N 48°42' W 123°13'3 6.3
2017-Sep-21 14:30N 48°39' W 123°14'4 8.1
2017-Sep-21 14:00N 48°35' W 123°13'4 8.4
2017-Sep-21 13:30N 48°31' W 123°11'4 8.7
2017-Sep-21 13:00N 48°27' W 123°09'5 9.2
2017-Sep-21 12:30N 48°23' W 123°12'5 9.5
2017-Sep-21 12:00N 48°20' W 123°17'5 9.5
2017-Sep-21 11:30N 48°17' W 123°23'5 9.6
2017-Sep-21 11:00N 48°15' W 123°30'5 9.3
2017-Sep-21 10:29N 48°14' W 123°37'4 8.6
2017-Sep-21 10:00N 48°12' W 123°43'5 9.3
2017-Sep-21 09:30N 48°12' W 123°50'5 9.4
2017-Sep-21 09:00N 48°13' W 123°57'5 9.6
2017-Sep-21 08:29N 48°15' W 124°04'4 9.2
2017-Sep-21 08:00N 48°17' W 124°09'4 8.3
2017-Sep-21 07:30N 48°18' W 124°15'4 7.8
2017-Sep-21 07:00N 48°20' W 124°20'4 7.0
2017-Sep-21 06:30N 48°21' W 124°25'3 6.8
2017-Sep-21 06:00N 48°23' W 124°30'3 6.9
2017-Sep-21 05:30N 48°24' W 124°35'4 7.0
2017-Sep-21 05:00N 48°25' W 124°40'3 6.6
2017-Sep-21 04:30N 48°26' W 124°45'4 7.3
2017-Sep-21 04:00N 48°25' W 124°50'4 7.6
2017-Sep-21 03:30N 48°21' W 124°53'4 7.8
2017-Sep-21 03:00N 48°18' W 124°55'7 7.2
2017-Sep-21 01:59N 48°11' W 124°57'81 7.4
2017-Sep-20 15:05N 46°52' W 124°29'1 7.3
2017-Sep-20 15:00N 46°51' W 124°29'7 7.2
2017-Sep-20 14:00N 46°44' W 124°27'4 7.1
2017-Sep-20 13:30N 46°41' W 124°26'4 7.2
2017-Sep-20 13:00N 46°37' W 124°25'4 7.4
2017-Sep-20 12:30N 46°34' W 124°24'4 7.3
2017-Sep-20 12:00N 46°30' W 124°23'4 7.6
2017-Sep-20 11:30N 46°26' W 124°21'4 8.2
2017-Sep-20 11:00N 46°22' W 124°20'4 8.0
2017-Sep-20 10:30N 46°18' W 124°19'4 8.0
2017-Sep-20 10:00N 46°15' W 124°18'4 7.2
2017-Sep-20 09:30N 46°13' W 124°13'3 6.6
2017-Sep-20 09:00N 46°13' W 124°09'3 5.6
2017-Sep-20 08:30N 46°15' W 124°05'3 6.1
2017-Sep-20 08:00N 46°15' W 124°01'3 6.3
2017-Sep-20 07:30N 46°13' W 123°57'3 5.6
2017-Sep-20 07:00N 46°11' W 123°54'3 6.5
2017-Sep-20 06:30N 46°12' W 123°50'3 6.9
2017-Sep-20 06:00N 46°13' W 123°45'4 7.3
2017-Sep-20 05:30N 46°15' W 123°41'4 8.2
2017-Sep-20 05:00N 46°15' W 123°35'4 8.2
2017-Sep-20 04:30N 46°16' W 123°29'4 8.2
2017-Sep-20 04:00N 46°13' W 123°25'4 8.4
2017-Sep-20 03:31N 46°09' W 123°23'510.1
2017-Sep-20 03:00N 46°09' W 123°16'510.5
2017-Sep-20 02:30N 46°11' W 123°09'510.0
2017-Sep-20 02:00N 46°09' W 123°03'5 9.7
2017-Sep-20 01:30N 46°06' W 122°57'4 8.6
2017-Sep-20 01:00N 46°03' W 122°53'4 8.1
2017-Sep-20 00:30N 45°59' W 122°51'4 7.5
2017-Sep-20 00:00N 45°56' W 122°48'4 7.4
2017-Sep-19 23:30N 45°52' W 122°47'4 7.7
2017-Sep-19 23:00N 45°48' W 122°47'4 8.2
2017-Sep-19 22:30N 45°44' W 122°46'4 8.5
2017-Sep-19 22:00N 45°40' W 122°46'4 7.5
2017-Sep-19 21:30N 45°38' W 122°42'0 0.5
2017-Sep-19 20:59N 45°38' W 122°42'0 0.8
2017-Sep-19 20:28N 45°38' W 122°41'1 1.7
2017-Sep-19 20:00N 45°38' W 122°42'3 6.3
2017-Sep-19 19:31N 45°39' W 122°46'4 8.3
2017-Sep-19 19:00N 45°35' W 122°45'2 3.1
2017-Sep-19 18:26N 45°34' W 122°43'0 0.1
2017-Sep-19 17:58N 45°34' W 122°43'0 0.0
2017-Sep-19 17:28N 45°34' W 122°43'0 0.0
2017-Sep-19 16:58N 45°34' W 122°43'0 0.0
2017-Sep-19 16:28N 45°34' W 122°43'0 0.0
2017-Sep-19 15:58N 45°34' W 122°43'0 0.0
2017-Sep-19 15:28N 45°34' W 122°43'0 0.0
2017-Sep-19 14:58N 45°34' W 122°43'0 0.0
2017-Sep-19 14:28N 45°34' W 122°43'  
Track history (hours):
 
Tides and Currents Weather Stations Pressure Air Temp Water Temp Dewpoint Dewpoint Depression Visibility Wind Speed Wind Dir Waves Ship Positions

M. Luther

Owner: Salmon Bay Barge Line, Inc., Seattle, WA. More information available from US FCC via Universal Licensing System and Coast Guard Vessel Documentation Center.

Last reported at 2017-Sep-26 16:00 UTC. Time now 2017-Nov-21 13:55 UTC.
Position N 47°34' W 122°22'.
Warning: this ship's position is 55 days out of date.

Length 28 m; draft 4.1 m.

Type: Tug. MMSI: 367070410.

Date/timePositionNaut miles runAvg speedWind from/ knotsBaromVisibWave heightAir tempDewpointWater temp
2017-Sep-26 16:00N 47°34' W 122°22'0 0.0
2017-Sep-26 15:31N 47°34' W 122°22'0 0.0
2017-Sep-26 15:00N 47°34' W 122°22'  
2017-Sep-22 02:00N 49°09' W 123°00'0 0.0
2017-Sep-22 01:30N 49°09' W 123°00'0 0.0
2017-Sep-22 01:00N 49°09' W 123°00'0 0.0
2017-Sep-22 00:30N 49°09' W 123°00'0 0.0
2017-Sep-22 00:00N 49°09' W 123°00'0 0.0
2017-Sep-21 23:30N 49°09' W 123°00'0 0.0
2017-Sep-21 23:00N 49°09' W 123°00'0 0.2
2017-Sep-21 22:30N 49°09' W 123°00'1 3.0
2017-Sep-21 22:00N 49°09' W 123°02'3 6.8
2017-Sep-21 21:30N 49°07' W 123°07'3 6.1
2017-Sep-21 21:00N 49°07' W 123°11'3 5.4
2017-Sep-21 20:30N 49°07' W 123°15'3 5.7
2017-Sep-21 20:00N 49°06' W 123°19'3 5.2
2017-Sep-21 19:30N 49°03' W 123°18'3 5.7
2017-Sep-21 19:00N 49°01' W 123°15'4 7.8
2017-Sep-21 18:30N 48°59' W 123°10'4 7.4
2017-Sep-21 18:00N 48°57' W 123°07'4 7.2
2017-Sep-21 17:30N 48°54' W 123°03'4 7.1
2017-Sep-21 17:00N 48°51' W 123°00'3 5.7
2017-Sep-21 16:30N 48°48' W 123°01'3 5.7
2017-Sep-21 16:00N 48°45' W 123°03'3 6.7
2017-Sep-21 15:29N 48°44' W 123°08'4 7.8
2017-Sep-21 14:59N 48°42' W 123°13'3 6.3
2017-Sep-21 14:30N 48°39' W 123°14'4 8.1
2017-Sep-21 14:00N 48°35' W 123°13'4 8.4
2017-Sep-21 13:30N 48°31' W 123°11'4 8.7
2017-Sep-21 13:00N 48°27' W 123°09'5 9.2
2017-Sep-21 12:30N 48°23' W 123°12'5 9.5
2017-Sep-21 12:00N 48°20' W 123°17'5 9.5
2017-Sep-21 11:30N 48°17' W 123°23'5 9.6
2017-Sep-21 11:00N 48°15' W 123°30'5 9.3
2017-Sep-21 10:29N 48°14' W 123°37'4 8.6
2017-Sep-21 10:00N 48°12' W 123°43'5 9.3
2017-Sep-21 09:30N 48°12' W 123°50'5 9.4
2017-Sep-21 09:00N 48°13' W 123°57'5 9.6
2017-Sep-21 08:29N 48°15' W 124°04'4 9.2
2017-Sep-21 08:00N 48°17' W 124°09'4 8.3
2017-Sep-21 07:30N 48°18' W 124°15'4 7.8
2017-Sep-21 07:00N 48°20' W 124°20'4 7.0
2017-Sep-21 06:30N 48°21' W 124°25'3 6.8
2017-Sep-21 06:00N 48°23' W 124°30'3 6.9
2017-Sep-21 05:30N 48°24' W 124°35'4 7.0
2017-Sep-21 05:00N 48°25' W 124°40'3 6.6
2017-Sep-21 04:30N 48°26' W 124°45'4 7.3
2017-Sep-21 04:00N 48°25' W 124°50'4 7.6
2017-Sep-21 03:30N 48°21' W 124°53'4 7.8
2017-Sep-21 03:00N 48°18' W 124°55'7 7.2
2017-Sep-21 01:59N 48°11' W 124°57'81 7.4
2017-Sep-20 15:05N 46°52' W 124°29'1 7.3
2017-Sep-20 15:00N 46°51' W 124°29'7 7.2
2017-Sep-20 14:00N 46°44' W 124°27'4 7.1
2017-Sep-20 13:30N 46°41' W 124°26'4 7.2
2017-Sep-20 13:00N 46°37' W 124°25'4 7.4
2017-Sep-20 12:30N 46°34' W 124°24'4 7.3
2017-Sep-20 12:00N 46°30' W 124°23'4 7.6
2017-Sep-20 11:30N 46°26' W 124°21'4 8.2
2017-Sep-20 11:00N 46°22' W 124°20'4 8.0
2017-Sep-20 10:30N 46°18' W 124°19'4 8.0
2017-Sep-20 10:00N 46°15' W 124°18'4 7.2
2017-Sep-20 09:30N 46°13' W 124°13'3 6.6
2017-Sep-20 09:00N 46°13' W 124°09'3 5.6
2017-Sep-20 08:30N 46°15' W 124°05'3 6.1
2017-Sep-20 08:00N 46°15' W 124°01'3 6.3
2017-Sep-20 07:30N 46°13' W 123°57'3 5.6
2017-Sep-20 07:00N 46°11' W 123°54'3 6.5
2017-Sep-20 06:30N 46°12' W 123°50'3 6.9
2017-Sep-20 06:00N 46°13' W 123°45'4 7.3
2017-Sep-20 05:30N 46°15' W 123°41'4 8.2
2017-Sep-20 05:00N 46°15' W 123°35'4 8.2
2017-Sep-20 04:30N 46°16' W 123°29'4 8.2
2017-Sep-20 04:00N 46°13' W 123°25'4 8.4
2017-Sep-20 03:31N 46°09' W 123°23'510.1
2017-Sep-20 03:00N 46°09' W 123°16'510.5
2017-Sep-20 02:30N 46°11' W 123°09'510.0
2017-Sep-20 02:00N 46°09' W 123°03'5 9.7
2017-Sep-20 01:30N 46°06' W 122°57'4 8.6
2017-Sep-20 01:00N 46°03' W 122°53'4 8.1
2017-Sep-20 00:30N 45°59' W 122°51'4 7.5
2017-Sep-20 00:00N 45°56' W 122°48'4 7.4
2017-Sep-19 23:30N 45°52' W 122°47'4 7.7
2017-Sep-19 23:00N 45°48' W 122°47'4 8.2
2017-Sep-19 22:30N 45°44' W 122°46'4 8.5
2017-Sep-19 22:00N 45°40' W 122°46'4 7.5
2017-Sep-19 21:30N 45°38' W 122°42'0 0.5
2017-Sep-19 20:59N 45°38' W 122°42'0 0.8
2017-Sep-19 20:28N 45°38' W 122°41'1 1.7
2017-Sep-19 20:00N 45°38' W 122°42'3 6.3
2017-Sep-19 19:31N 45°39' W 122°46'4 8.3
2017-Sep-19 19:00N 45°35' W 122°45'2 3.1
2017-Sep-19 18:26N 45°34' W 122°43'0 0.1
2017-Sep-19 17:58N 45°34' W 122°43'0 0.0
2017-Sep-19 17:28N 45°34' W 122°43'0 0.0
2017-Sep-19 16:58N 45°34' W 122°43'0 0.0
2017-Sep-19 16:28N 45°34' W 122°43'0 0.0
2017-Sep-19 15:58N 45°34' W 122°43'0 0.0
2017-Sep-19 15:28N 45°34' W 122°43'0 0.0
2017-Sep-19 14:58N 45°34' W 122°43'0 0.0
2017-Sep-19 14:28N 45°34' W 122°43'  

Dump ship's entire track history